createdAt,value
2023-05-09T04:00:30.839Z,64.00
2023-05-09T04:05:30.664Z,84.00
2023-05-09T04:10:30.645Z,148.00
2023-05-09T04:15:30.556Z,188.00
2023-05-09T04:20:30.656Z,260.00
2023-05-09T04:25:30.494Z,404.00
2023-05-09T04:30:30.456Z,444.00
2023-05-09T04:35:30.464Z,556.00
2023-05-09T04:40:30.434Z,640.00
2023-05-09T04:45:30.229Z,684.00
2023-05-09T04:50:30.173Z,892.00
2023-05-09T04:55:30.144Z,932.00
2023-05-09T05:00:30.202Z,1232.00
2023-05-09T05:05:30.292Z,1576.00
2023-05-09T05:10:29.960Z,1372.00
2023-05-09T05:15:29.903Z,1296.00
2023-05-09T05:20:30.016Z,1428.00
2023-05-09T05:25:29.831Z,1648.00
2023-05-09T05:30:30.722Z,1832.00
2023-05-09T05:35:29.709Z,2336.00
2023-05-09T05:40:29.749Z,2296.00
2023-05-09T05:45:29.597Z,2476.00
2023-05-09T05:50:29.511Z,2100.00
2023-05-09T05:55:29.482Z,2648.00
2023-05-09T06:00:29.672Z,5852.00
2023-05-09T06:05:29.378Z,6100.00
2023-05-09T06:10:29.396Z,5056.00
2023-05-09T06:15:29.259Z,4420.00
2023-05-09T06:20:29.325Z,4768.00
2023-05-09T06:25:29.124Z,6480.00
2023-05-09T06:30:29.169Z,6644.00
2023-05-09T06:35:29.028Z,8164.00
2023-05-09T06:40:29.132Z,9120.00
2023-05-09T06:45:28.927Z,10396.00
2023-05-09T06:50:31.470Z,8308.00
2023-05-09T06:55:28.786Z,10476.00
2023-05-09T07:00:28.892Z,18720.00
2023-05-09T07:05:28.751Z,16736.00
2023-05-09T07:10:28.661Z,18112.00
2023-05-09T07:15:40.306Z,16096.00
2023-05-09T07:20:29.777Z,11816.00
2023-05-09T07:25:28.474Z,10120.00
2023-05-09T07:30:28.494Z,5252.00
2023-05-09T07:35:28.387Z,8424.00
2023-05-09T07:40:28.448Z,8604.00
2023-05-09T07:45:28.354Z,10028.00
2023-05-09T07:50:28.194Z,6296.00
2023-05-09T07:55:28.157Z,5772.00
2023-05-09T08:00:28.227Z,11068.00
2023-05-09T08:05:28.043Z,12000.00
2023-05-09T08:10:28.031Z,10752.00
2023-05-09T08:15:27.953Z,9340.00
2023-05-09T08:20:28.034Z,11732.00
2023-05-09T08:25:27.811Z,10468.00
2023-05-09T08:30:27.768Z,11312.00
2023-05-09T08:35:27.744Z,13152.00
2023-05-09T08:40:27.815Z,11956.00
2023-05-09T08:45:27.627Z,11908.00
2023-05-09T08:50:27.588Z,10808.00
2023-05-09T08:55:27.519Z,10792.00
2023-05-09T09:00:28.046Z,11896.00
2023-05-09T09:05:40.796Z,12044.00
2023-05-09T09:10:28.378Z,11260.00
2023-05-09T09:15:27.296Z,10184.00
2023-05-09T09:20:27.371Z,10856.00
2023-05-09T09:25:27.166Z,11152.00
2023-05-09T09:30:27.161Z,10972.00
2023-05-09T09:35:27.058Z,11252.00
2023-05-09T09:40:27.166Z,11380.00
2023-05-09T09:45:27.001Z,11316.00
2023-05-09T09:50:26.943Z,10332.00
2023-05-09T09:55:26.858Z,11160.00
2023-05-09T10:00:26.923Z,12532.00
2023-05-09T10:05:26.971Z,12464.00
2023-05-09T10:10:26.703Z,11484.00
2023-05-09T10:15:45.142Z,11548.00
2023-05-09T10:20:27.579Z,10648.00
2023-05-09T10:25:26.563Z,10620.00
2023-05-09T10:30:26.474Z,11356.00
2023-05-09T10:35:26.590Z,11536.00
2023-05-09T10:40:26.440Z,12232.00
2023-05-09T10:45:26.321Z,11472.00
2023-05-09T10:50:26.286Z,10460.00
2023-05-09T10:55:26.319Z,9860.00
2023-05-09T11:00:26.182Z,10460.00
2023-05-09T11:05:26.093Z,10660.00
2023-05-09T11:10:26.051Z,10992.00
2023-05-09T11:15:26.132Z,11072.00
2023-05-09T11:20:25.946Z,10580.00
2023-05-09T11:25:25.906Z,9328.00
2023-05-09T11:30:25.862Z,9212.00
2023-05-09T11:35:25.911Z,9700.00
2023-05-09T11:40:25.741Z,10292.00
2023-05-09T11:45:25.690Z,10604.00
2023-05-09T11:50:25.641Z,11348.00
2023-05-09T11:55:25.945Z,12020.00
2023-05-09T12:00:25.508Z,11268.00
2023-05-09T12:05:25.460Z,10340.00
2023-05-09T12:10:25.407Z,9748.00
2023-05-09T12:15:25.375Z,9416.00
2023-05-09T12:20:25.313Z,9444.00
2023-05-09T12:25:25.318Z,9912.00
2023-05-09T12:30:25.194Z,9292.00
2023-05-09T12:35:25.280Z,8656.00
2023-05-09T12:40:25.092Z,9056.00
2023-05-09T12:45:25.044Z,9672.00
2023-05-09T12:50:24.973Z,9244.00
2023-05-09T12:55:25.057Z,9328.00
2023-05-09T13:00:24.873Z,9520.00
2023-05-09T13:05:24.809Z,8940.00
2023-05-09T13:10:25.035Z,8044.00
2023-05-09T13:15:24.742Z,5368.00
2023-05-09T13:20:24.658Z,5372.00
2023-05-09T13:25:24.605Z,8180.00
2023-05-09T13:30:24.554Z,9124.00
2023-05-09T13:35:24.617Z,8492.00
2023-05-09T13:40:24.481Z,7756.00
2023-05-09T13:45:24.391Z,6932.00
2023-05-09T13:50:24.340Z,6160.00
2023-05-09T13:55:24.393Z,5760.00
2023-05-09T14:00:24.226Z,5872.00
2023-05-09T14:05:24.175Z,6056.00
2023-05-09T14:10:24.135Z,5880.00
2023-05-09T14:15:24.091Z,5684.00
2023-05-09T14:20:24.020Z,5056.00
2023-05-09T14:25:23.963Z,3260.00
2023-05-09T14:30:23.905Z,3152.00
2023-05-09T14:35:24.039Z,2512.00
2023-05-09T14:40:23.794Z,3796.00
2023-05-09T14:45:23.753Z,2564.00
2023-05-09T14:50:23.686Z,756.00
2023-05-09T14:55:23.767Z,876.00
2023-05-09T15:00:23.938Z,1264.00
2023-05-09T15:05:23.523Z,680.00
2023-05-09T15:10:23.464Z,808.00
2023-05-09T15:15:23.549Z,1940.00
2023-05-09T15:20:23.365Z,2436.00
2023-05-09T15:25:23.311Z,2592.00
2023-05-09T15:30:23.289Z,2412.00
2023-05-09T15:35:23.438Z,1996.00
2023-05-09T15:40:23.149Z,1844.00
2023-05-09T15:45:23.105Z,1564.00
2023-05-09T15:50:23.040Z,1160.00
2023-05-09T15:55:23.123Z,1216.00
2023-05-09T16:00:22.941Z,932.00
2023-05-09T16:05:22.888Z,1196.00
2023-05-09T16:10:22.831Z,1120.00
2023-05-09T16:15:22.901Z,1040.00
2023-05-09T16:20:29.805Z,784.00
2023-05-09T16:25:22.815Z,1264.00
2023-05-09T16:30:22.613Z,1100.00
2023-05-09T16:35:22.683Z,1028.00
2023-05-09T16:40:22.508Z,1120.00
2023-05-09T16:45:22.528Z,1304.00
2023-05-09T16:50:22.406Z,1252.00
2023-05-09T16:55:22.496Z,1204.00
2023-05-09T17:00:22.315Z,1096.00
2023-05-09T17:05:22.236Z,908.00
2023-05-09T17:10:22.208Z,872.00
2023-05-09T17:15:22.264Z,920.00
2023-05-09T17:20:22.084Z,820.00
2023-05-09T17:25:22.027Z,740.00
2023-05-09T17:30:23.239Z,712.00
2023-05-09T17:35:22.043Z,664.00
2023-05-09T17:40:21.955Z,624.00
2023-05-09T17:45:21.849Z,592.00
2023-05-09T17:50:21.760Z,460.00
2023-05-09T17:55:21.836Z,252.00
2023-05-09T18:00:21.654Z,344.00
2023-05-09T18:05:21.605Z,264.00
2023-05-09T18:10:21.561Z,212.00
2023-05-09T18:15:21.600Z,208.00
2023-05-09T18:20:21.443Z,212.00
2023-05-09T18:25:21.380Z,160.00
2023-05-09T18:30:21.350Z,176.00
2023-05-09T18:35:21.410Z,164.00
2023-05-09T18:40:21.316Z,136.00
2023-05-09T18:45:21.163Z,88.00
2023-05-09T18:50:21.100Z,52.00
2023-05-09T18:55:21.186Z,44.00
2023-05-09T19:00:21.005Z,24.00
2023-05-09T19:05:20.940Z,24.00
2023-05-09T19:10:20.911Z,12.00
2023-05-09T19:15:20.968Z,4.00
2023-05-09T19:20:20.778Z,4.00
2023-05-09T19:25:20.716Z,0.00
2023-05-09T19:30:20.669Z,0.00
2023-05-09T19:35:20.745Z,0.00
2023-05-09T19:40:20.553Z,0.00
2023-05-09T19:45:20.519Z,0.00
2023-05-09T19:50:20.457Z,0.00
2023-05-09T19:55:20.444Z,0.00
2023-05-09T20:00:20.337Z,0.00
2023-05-09T20:05:20.283Z,0.00
2023-05-09T20:10:20.231Z,0.00
2023-05-09T20:15:20.193Z,0.00
2023-05-09T20:20:20.117Z,0.00
2023-05-09T20:25:20.100Z,0.00
2023-05-09T20:30:20.004Z,0.00
2023-05-09T20:35:19.969Z,0.00
2023-05-09T20:40:19.908Z,0.00
2023-05-09T20:45:19.860Z,0.00
2023-05-09T20:50:19.801Z,0.00
2023-05-09T20:55:19.839Z,0.00
2023-05-09T21:00:19.677Z,0.00
2023-05-09T21:05:19.620Z,0.00
2023-05-09T21:10:19.574Z,0.00
2023-05-09T21:15:19.550Z,0.00
2023-05-09T21:20:19.465Z,0.00
2023-05-09T21:25:19.405Z,0.00
2023-05-09T21:30:19.354Z,0.00
2023-05-09T21:35:19.332Z,0.00
2023-05-09T21:40:19.237Z,0.00
2023-05-09T21:45:19.286Z,0.00
2023-05-09T21:50:19.158Z,0.00
2023-05-09T21:55:19.218Z,0.00
2023-05-09T22:00:19.143Z,0.00
2023-05-09T22:05:18.946Z,0.00
2023-05-09T22:10:18.985Z,0.00
2023-05-09T22:15:18.875Z,0.00
2023-05-09T22:20:19.043Z,0.00
2023-05-09T22:25:25.753Z,0.00
2023-05-09T22:30:18.809Z,0.00
2023-05-09T22:35:18.638Z,0.00
2023-05-09T22:40:18.653Z,0.00
2023-05-09T22:45:18.528Z,0.00
2023-05-09T22:50:18.638Z,0.00
2023-05-09T22:55:18.412Z,0.00
2023-05-09T23:00:18.504Z,0.00
2023-05-09T23:05:18.310Z,0.00
2023-05-09T23:10:18.579Z,0.00
2023-05-09T23:15:18.193Z,0.00
2023-05-09T23:20:18.454Z,0.00
2023-05-09T23:25:18.079Z,0.00
